Time;durP1;ratioP1;P1;durP2;ratioP2;P2;SDS_P1;SDS_P2;PMS_P1;PMS_P2;Temp;Humidity;BMP_temperature;BMP_pressure;BME280_temperature;BME280_humidity;BME280_pressure;Samples;Min_cycle;Max_cycle;Signal;HPM_P1;HPM_P2
2024/02/01 00:00:36;;;;;;;13.25;9.98;;;;;;;4.45;100.00;101827.06;4938573;28;20027;-74
2024/02/01 00:03:02;;;;;;;18.58;10.38;;;;;;;4.43;100.00;101821.16;4925159;29;20489;-73
2024/02/01 00:05:28;;;;;;;14.77;10.43;;;;;;;4.44;100.00;101829.94;4958985;28;20509;-73
2024/02/01 00:07:55;;;;;;;16.17;10.15;;;;;;;4.41;100.00;101817.91;4940692;28;20043;-73
2024/02/01 00:10:21;;;;;;;14.93;10.68;;;;;;;4.41;100.00;101809.94;4939827;28;20046;-73
2024/02/01 00:12:47;;;;;;;14.93;11.05;;;;;;;4.38;100.00;101803.19;4917406;28;20047;-73
2024/02/01 00:15:13;;;;;;;17.58;11.45;;;;;;;4.41;100.00;101807.28;4938081;28;20128;-72
2024/02/01 00:17:39;;;;;;;13.38;10.48;;;;;;;4.40;100.00;101808.28;4924917;28;20556;-72
2024/02/01 00:20:06;;;;;;;13.82;9.85;;;;;;;4.42;100.00;101798.31;4936216;28;20062;-73
2024/02/01 00:22:32;;;;;;;15.07;11.15;;;;;;;4.44;100.00;101798.91;4920530;29;20126;-74
2024/02/01 00:24:59;;;;;;;14.98;10.45;;;;;;;4.46;100.00;101799.53;4937601;28;20057;-74
2024/02/01 00:27:25;;;;;;;16.70;9.27;;;;;;;4.47;100.00;101790.56;4941461;28;20154;-73
2024/02/01 00:29:50;;;;;;;16.48;10.75;;;;;;;4.50;100.00;101799.94;4921679;28;20031;-73
2024/02/01 00:32:17;;;;;;;15.57;10.55;;;;;;;4.47;100.00;101798.53;4936919;28;20090;-74
2024/02/01 00:34:44;;;;;;;18.35;11.30;;;;;;;4.50;100.00;101799.94;4940298;28;20035;-73
2024/02/01 00:37:10;;;;;;;15.32;11.40;;;;;;;4.50;100.00;101800.75;4950271;28;20039;-74
2024/02/01 00:39:36;;;;;;;13.98;10.63;;;;;;;4.50;100.00;101799.94;4925599;28;20130;-74
2024/02/01 00:42:02;;;;;;;16.85;11.00;;;;;;;4.53;100.00;101805.63;4935439;28;20138;-74
2024/02/01 00:44:28;;;;;;;17.65;11.90;;;;;;;4.58;100.00;101808.50;4947307;28;20035;-73
2024/02/01 00:46:54;;;;;;;17.88;10.88;;;;;;;4.59;100.00;101802.19;4940552;28;20648;-73
2024/02/01 00:52:17;;;;;;;18.40;13.48;;;;;;;4.64;100.00;101781.16;5590222;23;22105;-73
2024/02/01 00:54:42;;;;;;;17.85;12.18;;;;;;;4.66;100.00;101786.25;4909060;29;20047;-72
2024/02/01 00:57:08;;;;;;;18.55;11.63;;;;;;;4.69;100.00;101782.41;4917468;29;20102;-73
2024/02/01 00:59:34;;;;;;;16.85;12.57;;;;;;;4.69;100.00;101761.16;4921308;29;20864;-71
2024/02/01 01:01:59;;;;;;;17.00;11.90;;;;;;;4.71;100.00;101769.72;4917319;29;20027;-72
2024/02/01 01:04:25;;;;;;;16.67;11.32;;;;;;;4.73;100.00;101767.69;4900642;29;20552;-72
2024/02/01 01:06:51;;;;;;;16.33;11.77;;;;;;;4.75;100.00;101776.28;4919929;29;20485;-72
2024/02/01 01:09:16;;;;;;;19.15;12.07;;;;;;;4.76;100.00;101761.97;4904656;29;20039;-73
2024/02/01 01:11:42;;;;;;;17.90;11.98;;;;;;;4.78;100.00;101773.19;4890554;29;20047;-71
2024/02/01 01:14:08;;;;;;;18.08;11.77;;;;;;;4.80;100.00;101768.50;4899189;29;20043;-71
2024/02/01 01:16:34;;;;;;;20.25;12.00;;;;;;;4.83;100.00;101778.72;4919151;29;20406;-73
2024/02/01 01:18:59;;;;;;;16.60;11.93;;;;;;;4.85;100.00;101766.84;4901037;29;20043;-74
2024/02/01 01:21:27;;;;;;;17.98;12.57;;;;;;;4.87;100.00;101758.69;4922343;29;20074;-73
2024/02/01 01:23:52;;;;;;;19.98;13.88;;;;;;;4.89;100.00;101748.69;4917589;29;20517;-73
2024/02/01 01:26:22;;;;;;;19.25;13.07;;;;;;;4.89;100.00;101762.78;4908249;29;20052;-73
2024/02/01 01:28:48;;;;;;;15.75;11.70;;;;;;;4.91;100.00;101765.22;4928901;28;20044;-74
2024/02/01 01:31:14;;;;;;;18.75;12.68;;;;;;;4.95;100.00;101766.44;4931916;28;20147;-74
2024/02/01 01:33:40;;;;;;;17.33;11.73;;;;;;;4.97;100.00;101775.00;4909783;29;20158;-72
2024/02/01 01:36:24;;;;;;;18.42;12.23;;;;;;;4.96;100.00;101746.03;4914853;29;20106;-72
2024/02/01 01:38:50;;;;;;;20.08;14.70;;;;;;;4.93;100.00;101750.69;4920939;29;20484;-73
2024/02/01 01:41:15;;;;;;;14.70;10.95;;;;;;;4.95;100.00;101771.75;4925764;29;20035;-73
2024/02/01 01:43:41;;;;;;;18.88;12.98;;;;;;;4.97;100.00;101759.09;4923630;29;20081;-73
2024/02/01 01:46:07;;;;;;;19.55;13.85;;;;;;;5.00;100.00;101758.66;4907468;29;20740;-73
2024/02/01 01:48:33;;;;;;;18.05;11.48;;;;;;;4.97;100.00;101752.97;4921738;29;20677;-72
2024/02/01 01:50:59;;;;;;;18.08;14.02;;;;;;;5.00;100.00;101761.31;4923834;29;20032;-73
2024/02/01 01:53:28;;;;;;;17.20;11.75;;;;;;;5.02;100.00;101756.63;4914596;29;20064;-74
2024/02/01 01:55:54;;;;;;;18.50;13.10;;;;;;;5.05;100.00;101750.06;4904559;29;20036;-72
2024/02/01 01:58:22;;;;;;;16.70;10.85;;;;;;;5.05;100.00;101750.88;4920001;29;20036;-71
2024/02/01 02:00:48;;;;;;;19.20;13.30;;;;;;;5.07;100.00;101751.50;4917255;29;20036;-72
2024/02/01 02:03:14;;;;;;;16.67;12.82;;;;;;;5.12;100.00;101746.38;4907679;29;20114;-72
2024/02/01 02:05:40;;;;;;;17.30;12.15;;;;;;;5.15;100.00;101745.97;4921179;29;20047;-72
2024/02/01 02:08:07;;;;;;;17.95;11.60;;;;;;;5.17;100.00;101757.19;4922158;29;20043;-73
2024/02/01 02:10:33;;;;;;;14.82;10.68;;;;;;;5.18;100.00;101756.16;4921084;29;20486;-72
2024/02/01 02:12:58;;;;;;;18.60;13.65;;;;;;;5.21;100.00;101744.31;4919003;28;20036;-73
2024/02/01 02:15:31;;;;;;;15.13;11.38;;;;;;;5.22;100.00;101751.25;4923379;29;20099;-73
2024/02/01 02:17:56;;;;;;;18.33;12.93;;;;;;;5.22;100.00;101750.47;4915686;29;20044;-72
2024/02/01 02:20:26;;;;;;;16.42;11.80;;;;;;;5.26;100.00;101754.31;4922192;29;21197;-72
2024/02/01 02:22:54;;;;;;;15.52;11.93;;;;;;;5.27;100.00;101750.63;4917767;29;20024;-72
2024/02/01 02:25:20;;;;;;;16.08;11.88;;;;;;;5.28;100.00;101738.97;4919143;29;20758;-73
2024/02/01 02:27:47;;;;;;;17.48;11.35;;;;;;;5.31;100.00;101759.81;4923610;29;20040;-74
2024/02/01 02:30:13;;;;;;;17.10;12.43;;;;;;;5.33;100.00;101760.41;4924784;29;20123;-72
2024/02/01 02:32:40;;;;;;;15.43;10.80;;;;;;;5.33;100.00;101752.44;4909472;29;20039;-73
2024/02/01 02:35:14;;;;;;;13.80;10.15;;;;;;;5.36;100.00;101752.03;4921910;29;20035;-72
2024/02/01 02:37:47;;;;;;;13.48;9.38;;;;;;;5.36;100.00;101742.22;4922240;29;20031;-72
2024/02/01 02:40:15;;;;;;;12.20;8.93;;;;;;;5.36;100.00;101752.84;4897207;29;20203;-72
2024/02/01 02:42:41;;;;;;;11.70;8.68;;;;;;;5.40;100.00;101754.03;4921278;29;20170;-72
2024/02/01 02:45:06;;;;;;;12.05;8.90;;;;;;;5.41;100.00;101770.78;4918448;29;20086;-71
2024/02/01 02:47:32;;;;;;;12.65;8.82;;;;;;;5.41;100.00;101779.56;4922078;29;20031;-71
2024/02/01 02:49:58;;;;;;;13.63;9.80;;;;;;;5.42;100.00;101781.22;4933680;28;20075;-73
2024/02/01 02:52:23;;;;;;;11.82;8.45;;;;;;;5.43;100.00;101790.03;4917984;29;20119;-72
2024/02/01 02:54:49;;;;;;;12.77;9.18;;;;;;;5.45;100.00;101806.56;4923176;28;20039;-72
2024/02/01 02:57:14;;;;;;;11.45;8.73;;;;;;;5.45;100.00;101820.66;4902518;29;20078;-74
2024/02/01 02:59:41;;;;;;;14.45;9.05;;;;;;;5.45;100.00;101822.50;4921160;29;20057;-72
2024/02/01 03:02:07;;;;;;;12.18;7.93;;;;;;;5.46;100.00;101832.09;4921492;29;20031;-72
2024/02/01 03:04:33;;;;;;;11.93;9.05;;;;;;;5.46;100.00;101829.44;4925022;29;20054;-72
2024/02/01 03:07:00;;;;;;;11.75;8.50;;;;;;;5.46;100.00;101837.41;4918684;29;20040;-72
2024/02/01 03:09:27;;;;;;;10.50;7.15;;;;;;;5.46;100.00;101838.22;4905209;29;20371;-72
2024/02/01 03:11:53;;;;;;;10.32;6.97;;;;;;;5.48;100.00;101838.81;4915628;29;20041;-71
2024/02/01 03:14:18;;;;;;;10.73;7.18;;;;;;;5.48;100.00;101836.16;4923541;29;20532;-72
2024/02/01 03:16:44;;;;;;;12.50;7.55;;;;;;;5.52;100.00;101838.41;4919067;29;20122;-71
2024/02/01 03:19:11;;;;;;;10.52;7.05;;;;;;;5.52;100.00;101847.19;4925778;29;20047;-72
2024/02/01 03:21:37;;;;;;;10.20;7.40;;;;;;;5.53;100.00;101843.53;4921836;29;20072;-72
2024/02/01 03:24:03;;;;;;;11.93;7.30;;;;;;;5.54;100.00;101844.34;4908662;29;20199;-71
2024/02/01 03:26:37;;;;;;;11.18;6.63;;;;;;;5.54;100.00;101853.13;4922967;29;20039;-73
2024/02/01 03:29:04;;;;;;;11.25;7.30;;;;;;;5.56;100.00;101859.06;4920317;29;20032;-73
2024/02/01 03:31:36;;;;;;;10.65;7.50;;;;;;;5.55;100.00;101862.72;4920441;29;20044;-72
2024/02/01 03:34:20;;;;;;;9.77;6.53;;;;;;;5.54;100.00;101861.09;4915427;29;20078;-72
2024/02/01 03:36:50;;;;;;;14.80;6.95;;;;;;;5.53;100.00;101859.47;4930182;28;20035;-72
2024/02/01 03:39:22;;;;;;;10.00;6.03;;;;;;;5.51;100.00;101861.53;4922533;29;20039;-72
2024/02/01 03:41:52;;;;;;;;;;;;;;;5.47;100.00;101866.41;4920283;29;20497;-72
2024/02/01 03:44:18;;;;;;;8.40;5.10;;;;;;;5.44;100.00;101871.34;4905113;29;19933;-73
2024/02/01 03:46:44;;;;;;;11.25;5.72;;;;;;;5.41;100.00;101874.41;4921969;29;20036;-73
2024/02/01 03:49:10;;;;;;;12.90;6.05;;;;;;;5.37;100.00;101876.66;4903892;29;20043;-73
2024/02/01 03:51:36;;;;;;;11.55;6.07;;;;;;;5.36;100.00;101880.34;4920264;29;20047;-73
2024/02/01 03:54:05;;;;;;;11.85;5.70;;;;;;;5.36;100.00;101882.19;4915030;29;20040;-73
2024/02/01 03:56:35;;;;;;;12.70;5.45;;;;;;;5.30;100.00;101885.69;4902067;29;20600;-73
2024/02/01 03:59:09;;;;;;;9.20;5.40;;;;;;;5.28;100.00;101882.38;4920377;29;20065;-73
2024/02/01 04:01:36;;;;;;;10.98;4.85;;;;;;;5.22;100.00;101893.88;4917098;29;20051;-73
2024/02/01 04:04:05;;;;;;;11.75;5.03;;;;;;;5.16;100.00;101893.66;4906928;29;20055;-73
2024/02/01 04:06:35;;;;;;;16.65;4.38;;;;;;;5.14;100.00;101903.66;4923249;29;20094;-73
2024/02/01 04:09:01;;;;;;;11.75;4.68;;;;;;;5.05;100.00;101910.19;4905944;29;20032;-73
2024/02/01 04:11:30;;;;;;;9.60;4.78;;;;;;;5.03;100.00;101922.06;4918045;29;20091;-72
2024/02/01 04:13:56;;;;;;;11.05;4.70;;;;;;;5.02;100.00;101921.25;4919331;29;20530;-73
2024/02/01 04:16:22;;;;;;;13.93;4.50;;;;;;;5.00;100.00;101922.44;4920842;29;20875;-72
2024/02/01 04:18:48;;;;;;;10.65;4.40;;;;;;;4.97;100.00;101920.22;4922103;29;20091;-73
2024/02/01 04:21:13;;;;;;;16.85;5.03;;;;;;;4.92;100.00;101926.13;4918826;29;20126;-73
2024/02/01 04:23:39;;;;;;;14.10;4.78;;;;;;;4.89;100.00;101926.53;4923736;29;20099;-73
2024/02/01 04:26:05;;;;;;;12.90;4.90;;;;;;;4.85;100.00;101926.13;4905425;29;20040;-72
2024/02/01 04:28:33;;;;;;;16.48;4.82;;;;;;;4.83;100.00;101928.16;4902878;29;20040;-73
2024/02/01 04:31:01;;;;;;;11.25;5.07;;;;;;;4.78;100.00;101930.59;4902455;29;20047;-73
2024/02/01 04:33:28;;;;;;;13.73;4.90;;;;;;;4.74;100.00;101929.38;4924505;29;20032;-73
2024/02/01 04:35:54;;;;;;;14.57;3.90;;;;;;;4.66;100.00;101926.91;4902383;29;20043;-73
2024/02/01 04:38:20;;;;;;;15.38;4.72;;;;;;;4.66;100.00;101938.31;4912166;29;20044;-73
2024/02/01 04:40:46;;;;;;;20.67;6.03;;;;;;;4.64;100.00;101943.03;4896644;29;20027;-72
2024/02/01 04:43:11;;;;;;;18.30;4.57;;;;;;;4.60;100.00;101936.47;4900889;29;21168;-73
2024/02/01 04:45:37;;;;;;;13.40;3.92;;;;;;;4.56;100.00;101947.69;4909261;29;20043;-73
2024/02/01 04:48:10;;;;;;;13.80;4.10;;;;;;;4.56;100.00;101953.00;4904494;29;20083;-71
2024/02/01 04:50:39;;;;;;;14.25;3.30;;;;;;;4.54;100.00;101958.53;4918801;29;20083;-72
2024/02/01 04:53:07;;;;;;;19.42;4.07;;;;;;;4.49;100.00;101968.91;4921013;29;20469;-73
2024/02/01 04:55:34;;;;;;;18.55;3.95;;;;;;;4.46;100.00;101977.25;4906959;29;20059;-73
2024/02/01 04:58:00;;;;;;;18.33;4.20;;;;;;;4.44;100.00;101973.97;4924095;29;20046;-73
2024/02/01 05:00:27;;;;;;;22.08;4.18;;;;;;;4.39;100.00;101987.81;4891044;29;20040;-72
2024/02/01 05:02:54;;;;;;;25.15;4.13;;;;;;;4.38;100.00;101988.84;4907095;29;20528;-72
2024/02/01 05:05:20;;;;;;;21.38;4.63;;;;;;;4.33;100.00;101990.44;4919823;29;20039;-73
2024/02/01 05:07:47;;;;;;;21.65;3.65;;;;;;;4.29;100.00;101991.88;4924207;29;20082;-71
2024/02/01 05:10:13;;;;;;;21.02;3.80;;;;;;;4.30;100.00;101991.69;4923272;29;20528;-72
2024/02/01 05:12:39;;;;;;;21.95;4.22;;;;;;;4.30;100.00;102001.47;4925875;29;20031;-72
2024/02/01 05:15:09;;;;;;;25.98;4.28;;;;;;;4.26;100.00;101998.38;4923018;29;20034;-71
2024/02/01 05:17:54;;;;;;;18.52;3.47;;;;;;;4.21;100.00;102003.47;4931219;28;20059;-71
2024/02/01 05:20:20;;;;;;;22.70;3.10;;;;;;;4.19;100.00;102002.00;4915826;29;20042;-72
2024/02/01 05:22:46;;;;;;;22.27;3.03;;;;;;;4.15;100.00;102003.44;4927685;29;20044;-73
2024/02/01 05:25:14;;;;;;;15.27;3.03;;;;;;;4.13;100.00;102008.09;4908907;29;20067;-73
2024/02/01 05:27:44;;;;;;;27.10;3.25;;;;;;;4.05;100.00;102012.53;4925114;29;20159;-73
2024/02/01 05:30:09;;;;;;;17.88;3.90;;;;;;;4.03;100.00;102011.13;4909169;29;20039;-73
2024/02/01 05:32:35;;;;;;;19.50;3.75;;;;;;;3.97;100.00;102015.34;4921792;29;20035;-73
2024/02/01 05:35:01;;;;;;;22.05;3.28;;;;;;;3.99;100.00;102026.56;4923544;29;20823;-73
2024/02/01 05:37:27;;;;;;;21.42;2.85;;;;;;;3.99;100.00;102026.56;4925267;29;20126;-71
2024/02/01 05:39:53;;;;;;;18.02;2.63;;;;;;;3.94;100.00;102039.63;4907815;29;20058;-72
2024/02/01 05:42:18;;;;;;;17.58;3.03;;;;;;;3.91;100.00;102039.97;4921991;29;20072;-73
2024/02/01 05:44:44;;;;;;;20.83;3.50;;;;;;;3.87;100.00;102041.41;4919914;29;20552;-73
2024/02/01 05:47:09;;;;;;;20.08;3.40;;;;;;;3.83;100.00;102027.72;4923758;29;20067;-74
2024/02/01 05:49:36;;;;;;;20.92;3.30;;;;;;;3.83;100.00;102038.31;4924221;29;20530;-73
2024/02/01 05:52:05;;;;;;;;;;;;;;;3.81;100.00;102044.81;4921931;29;20039;-73
2024/02/01 05:54:32;;;;;;;17.08;2.92;;;;;;;3.77;100.00;102056.81;4917065;29;19915;-71
2024/02/01 05:56:58;;;;;;;20.10;3.00;;;;;;;3.75;100.00;102058.84;4907739;29;20066;-72
2024/02/01 05:59:24;;;;;;;19.15;2.80;;;;;;;3.73;100.00;102047.63;4905454;29;20501;-72
2024/02/01 06:01:49;;;;;;;23.33;3.35;;;;;;;3.74;100.00;102059.84;4921350;29;20767;-72
2024/02/01 06:04:15;;;;;;;18.77;3.38;;;;;;;3.71;100.00;102060.22;4919095;29;20051;-73
2024/02/01 06:06:46;;;;;;;21.13;3.35;;;;;;;3.70;100.00;102066.53;4915571;29;20036;-72
2024/02/01 06:09:12;;;;;;;20.58;3.45;;;;;;;3.67;100.00;102075.69;4915327;29;20045;-72
2024/02/01 06:11:40;;;;;;;15.90;2.60;;;;;;;3.59;100.00;102077.63;4923820;29;20039;-72
2024/02/01 06:14:06;;;;;;;18.45;2.88;;;;;;;3.60;100.00;102071.34;4922991;29;20035;-72
2024/02/01 06:16:31;;;;;;;16.67;2.90;;;;;;;3.59;100.00;102093.53;4911604;29;20043;-72
2024/02/01 06:18:57;;;;;;;19.33;2.67;;;;;;;3.58;100.00;102098.00;4922511;29;20090;-72
2024/02/01 06:21:23;;;;;;;;;;;;;;;3.56;100.00;102106.16;4926955;29;20781;-72
2024/02/01 06:23:49;;;;;;;27.55;2.63;;;;;;;3.54;100.00;102110.84;4927949;29;19925;-72
2024/02/01 06:26:19;;;;;;;18.27;3.55;;;;;;;3.53;100.00;102106.56;4924758;29;20042;-72
2024/02/01 06:28:44;;;;;;;25.48;2.85;;;;;;;3.53;100.00;102101.25;4927783;29;20051;-72
2024/02/01 06:31:13;;;;;;;18.75;3.22;;;;;;;3.55;100.00;102109.00;4910003;29;20107;-71
2024/02/01 06:33:40;;;;;;;23.50;3.25;;;;;;;3.56;100.00;102111.47;4926231;29;20031;-72
2024/02/01 06:36:07;;;;;;;17.00;3.20;;;;;;;3.56;100.00;102116.75;4921831;29;20402;-72
2024/02/01 06:38:55;;;;;;;24.52;3.05;;;;;;;3.55;100.00;102135.50;4925038;29;20034;-71
2024/02/01 06:41:41;;;;;;;25.77;3.33;;;;;;;3.52;100.00;102146.44;4903172;29;20074;-74
2024/02/01 06:50:00;;;;;;;28.60;3.70;;;;;;;3.45;100.00;102149.03;4918945;29;20062;-72
2024/02/01 06:52:45;;;;;;;23.38;3.22;;;;;;;3.48;100.00;102151.31;4916053;29;20071;-72
2024/02/01 06:57:47;;;;;;;17.25;3.45;;;;;;;3.50;100.00;102146.63;4921896;29;20444;-72
2024/02/01 07:00:37;;;;;;;25.13;3.47;;;;;;;3.49;100.00;102155.59;4903547;29;20032;-71
2024/02/01 07:03:12;;;;;;;21.90;3.03;;;;;;;3.52;100.00;102159.69;4930127;28;20693;-72
2024/02/01 07:16:21;;;;;;;28.38;3.30;;;;;;;3.58;100.00;102168.72;4923152;29;20039;-72
2024/02/01 07:19:09;;;;;;;27.10;3.25;;;;;;;3.55;100.00;102176.03;4923446;29;20051;-72
2024/02/01 07:21:45;;;;;;;18.98;2.70;;;;;;;3.49;100.00;102174.13;4909127;29;20027;-72
2024/02/01 07:24:27;;;;;;;19.13;3.20;;;;;;;3.48;100.00;102177.81;4922326;29;20035;-72
2024/02/01 07:57:35;;;;;;;22.92;2.90;;;;;;;3.50;100.00;102189.03;4926658;29;20040;-72
2024/02/01 07:59:48;;;;;;;25.30;3.10;;;;;;;3.72;100.00;102210.22;4910259;29;20130;-71
2024/02/01 08:02:25;;;;;;;22.13;3.85;;;;;;;3.75;100.00;102216.00;4921674;29;20058;-73
2024/02/01 08:07:47;;;;;;;16.23;2.80;;;;;;;3.79;100.00;102216.41;4907130;29;20768;-72
2024/02/01 08:10:13;;;;;;;25.60;3.38;;;;;;;3.83;100.00;102220.34;4921943;29;20051;-73
2024/02/01 08:12:38;;;;;;;24.08;2.90;;;;;;;3.86;100.00;102219.94;4923153;29;20031;-73
2024/02/01 08:15:24;;;;;;;30.08;3.83;;;;;;;3.90;100.00;102231.84;4925264;29;20103;-73
2024/02/01 08:18:10;;;;;;;15.35;2.70;;;;;;;3.94;100.00;102230.47;4919406;29;20070;-72
2024/02/01 08:20:37;;;;;;;19.60;2.47;;;;;;;3.96;100.00;102246.97;4923808;29;20032;-72
2024/02/01 08:23:04;;;;;;;22.90;2.92;;;;;;;3.98;100.00;102247.59;4890044;29;20040;-70
2024/02/01 08:25:30;;;;;;;27.92;3.42;;;;;;;4.00;100.00;102240.31;4919775;29;20043;-73
2024/02/01 08:28:00;;;;;;;25.55;2.72;;;;;;;4.04;100.00;102238.91;4922507;29;20078;-72
2024/02/01 08:30:31;;;;;;;29.58;3.55;;;;;;;4.05;100.00;102250.31;4898569;29;20044;-72
2024/02/01 08:33:03;;;;;;;23.75;2.97;;;;;;;4.07;100.00;102261.59;4921052;29;20032;-72
2024/02/01 08:35:36;;;;;;;20.73;3.10;;;;;;;4.10;100.00;102266.50;4922588;29;20035;-72
2024/02/01 08:38:06;;;;;;;27.42;3.00;;;;;;;4.11;100.00;102271.59;4921976;29;20035;-72
2024/02/01 08:40:32;;;;;;;24.10;3.25;;;;;;;4.15;100.00;102265.94;4926795;29;20122;-72
2024/02/01 08:42:58;;;;;;;;;;;;;;;4.18;100.00;102273.50;4928136;29;20032;-72
2024/02/01 08:45:28;;;;;;;18.85;2.47;;;;;;;4.21;100.00;102273.13;4926000;29;20584;-73
2024/02/01 08:48:02;;;;;;;26.45;3.15;;;;;;;4.27;100.00;102277.69;4926006;29;20115;-73
2024/02/01 08:50:29;;;;;;;23.13;3.53;;;;;;;4.29;100.00;102278.31;4908168;29;20043;-73
2024/02/01 08:52:55;;;;;;;;;;;;;;;4.32;100.00;102285.88;4924577;29;20040;-73
2024/02/01 08:55:20;;;;;;;29.58;3.53;;;;;;;4.35;100.00;102285.50;4923297;29;19925;-73
2024/02/01 08:57:46;;;;;;;35.83;3.33;;;;;;;4.37;100.00;102283.47;4926904;29;20032;-73
2024/02/01 09:00:29;;;;;;;28.38;4.30;;;;;;;4.41;100.00;102289.22;4923292;29;20089;-72
2024/02/01 09:03:03;;;;;;;22.02;3.08;;;;;;;4.46;100.00;102286.81;4937373;28;20035;-72
2024/02/01 09:05:35;;;;;;;21.25;3.40;;;;;;;4.51;100.00;102303.78;4926568;29;20050;-72
2024/02/01 09:08:04;;;;;;;25.85;3.20;;;;;;;4.58;100.00;102302.00;4909309;29;20055;-72
2024/02/01 09:10:33;;;;;;;30.17;3.08;;;;;;;4.63;100.00;102304.91;4924041;29;20047;-72
2024/02/01 09:12:59;;;;;;;25.17;2.88;;;;;;;4.66;100.00;102293.09;4907540;29;20040;-72
2024/02/01 09:15:25;;;;;;;30.70;4.57;;;;;;;4.70;100.00;102301.50;4907753;29;20061;-71
2024/02/01 09:17:51;;;;;;;26.27;3.85;;;;;;;4.73;100.00;102303.75;4909298;29;20036;-72
2024/02/01 09:20:17;;;;;;;;;;;;;;;4.74;100.00;102305.41;4906295;29;20076;-72
2024/02/01 09:22:54;;;;;;;24.45;4.13;;;;;;;4.76;100.00;102304.22;4931730;28;20022;-71
2024/02/01 09:25:22;;;;;;;22.80;3.55;;;;;;;4.78;100.00;102311.97;4924409;29;20031;-73
2024/02/01 09:27:52;;;;;;;31.63;3.28;;;;;;;4.76;100.00;102298.09;4928397;29;20429;-72
2024/02/01 09:30:20;;;;;;;30.00;4.00;;;;;;;4.82;100.00;102311.41;4921791;29;20035;-72
2024/02/01 09:32:51;;;;;;;28.85;3.38;;;;;;;4.86;100.00;102309.97;4910971;29;20039;-73
2024/02/01 09:35:18;;;;;;;24.67;3.40;;;;;;;4.89;100.00;102308.81;4924787;29;20046;-73
2024/02/01 09:37:44;;;;;;;24.38;3.60;;;;;;;4.93;100.00;102326.78;4927613;29;20148;-72
2024/02/01 09:40:11;;;;;;;19.30;2.95;;;;;;;4.99;100.00;102325.19;4924508;29;20035;-72
2024/02/01 09:42:56;;;;;;;25.08;3.85;;;;;;;5.03;100.00;102317.69;4934641;28;20131;-73
2024/02/01 09:45:30;;;;;;;20.88;3.50;;;;;;;5.07;100.00;102333.00;4919905;29;21013;-73
2024/02/01 09:47:57;;;;;;;21.52;3.15;;;;;;;5.13;100.00;102342.03;4908456;29;20065;-73
2024/02/01 09:50:23;;;;;;;30.92;4.18;;;;;;;5.20;100.00;102332.28;4922279;29;20106;-74
2024/02/01 09:52:51;;;;;;;25.08;3.35;;;;;;;5.25;100.00;102335.19;4906361;29;20041;-73
2024/02/01 09:55:19;;;;;;;31.40;3.50;;;;;;;5.28;100.00;102350.72;4930490;28;20055;-73
2024/02/01 09:58:00;;;;;;;26.00;4.20;;;;;;;5.33;100.00;102344.81;4925397;29;20107;-72
2024/02/01 10:00:27;;;;;;;20.70;3.97;;;;;;;5.36;100.00;102357.72;4907041;29;20044;-74
2024/02/01 10:02:54;;;;;;;24.15;3.42;;;;;;;5.38;100.00;102339.75;4906504;29;20043;-74
2024/02/01 10:05:22;;;;;;;27.38;3.53;;;;;;;5.39;100.00;102350.16;4922713;29;20870;-73
2024/02/01 10:07:52;;;;;;;24.85;4.32;;;;;;;5.41;100.00;102349.97;4927635;29;20110;-73
2024/02/01 10:10:20;;;;;;;25.85;4.38;;;;;;;5.41;100.00;102363.25;4919784;29;20042;-73
2024/02/01 10:12:46;;;;;;;17.42;3.08;;;;;;;5.43;100.00;102369.22;4922061;29;20055;-73
2024/02/01 10:15:19;;;;;;;25.30;3.90;;;;;;;5.46;100.00;102353.69;4925238;29;20114;-73
2024/02/01 10:17:51;;;;;;;28.25;3.22;;;;;;;5.52;100.00;102357.41;4925562;29;20198;-74
2024/02/01 10:20:45;;;;;;;32.78;3.80;;;;;;;5.58;100.00;102367.25;4921986;29;20044;-72
2024/02/01 10:23:13;;;;;;;23.80;3.55;;;;;;;5.59;100.00;102368.88;4907822;29;20051;-73
2024/02/01 10:25:57;;;;;;;25.73;3.72;;;;;;;5.64;100.00;102365.66;4921868;29;20095;-73
2024/02/01 10:28:34;;;;;;;29.58;3.83;;;;;;;5.67;100.00;102368.72;4906752;29;20051;-71
2024/02/01 10:31:01;;;;;;;21.55;3.33;;;;;;;5.71;100.00;102369.97;4913926;29;20031;-71
2024/02/01 10:33:30;;;;;;;25.55;3.75;;;;;;;5.78;100.00;102374.50;4908708;29;20497;-72
2024/02/01 10:35:59;;;;;;;21.88;3.38;;;;;;;5.83;100.00;102354.28;4906689;29;20044;-72
2024/02/01 10:38:26;;;;;;;27.38;4.47;;;;;;;5.90;100.00;102356.97;4902345;29;20055;-71
2024/02/01 10:41:11;;;;;;;32.25;4.40;;;;;;;5.95;100.00;102357.22;4906784;29;20039;-72
2024/02/01 10:43:42;;;;;;;23.85;3.38;;;;;;;6.00;100.00;102352.13;4905688;29;20047;-72
2024/02/01 10:46:09;;;;;;;20.42;3.03;;;;;;;6.06;100.00;102342.53;4926640;29;20027;-72
2024/02/01 10:49:04;;;;;;;17.83;3.15;;;;;;;6.12;100.00;102352.38;4924154;29;20057;-73
2024/02/01 10:51:31;;;;;;;23.27;3.42;;;;;;;6.19;100.00;102348.69;4906097;29;20071;-73
2024/02/01 10:53:58;;;;;;;23.90;3.50;;;;;;;6.22;100.00;102345.63;4923983;29;20090;-72
2024/02/01 10:56:29;;;;;;;21.95;3.80;;;;;;;6.28;100.00;102346.66;4921454;29;20043;-72
2024/02/01 10:59:07;;;;;;;18.30;3.28;;;;;;;6.33;100.00;102335.44;4921109;29;20035;-72
2024/02/01 11:01:34;;;;;;;25.10;3.67;;;;;;;6.31;100.00;102346.28;4917873;29;20130;-72
2024/02/01 11:04:01;;;;;;;29.90;4.00;;;;;;;6.34;100.00;102342.38;4908063;29;20071;-72
2024/02/01 11:06:28;;;;;;;33.75;4.32;;;;;;;6.37;100.00;102340.16;4907892;29;20475;-72
2024/02/01 11:08:57;;;;;;;22.75;3.70;;;;;;;6.41;100.00;102351.19;4926342;29;20038;-72
2024/02/01 11:11:34;;;;;;;19.08;3.17;;;;;;;6.49;100.00;102349.16;4908265;29;20151;-72
2024/02/01 11:14:10;;;;;;;19.38;2.88;;;;;;;6.59;100.00;102340.78;4916014;29;20583;-72
2024/02/01 11:16:46;;;;;;;34.10;4.50;;;;;;;6.63;100.00;102344.66;4921923;29;20607;-72
2024/02/01 11:19:17;;;;;;;19.88;3.38;;;;;;;6.66;100.00;102335.47;4922584;29;20043;-71
2024/02/01 11:22:03;;;;;;;26.00;3.70;;;;;;;6.69;100.00;102325.19;4924787;29;20109;-72
2024/02/01 11:24:44;;;;;;;22.33;2.72;;;;;;;6.72;100.00;102342.63;4911510;29;20036;-71
2024/02/01 11:27:14;;;;;;;;;;;;;;;6.78;100.00;102342.63;4927014;29;20035;-72
2024/02/01 11:29:47;;;;;;;21.20;3.30;;;;;;;6.81;100.00;102341.38;4925380;29;19923;-73
2024/02/01 11:32:18;;;;;;;21.52;3.55;;;;;;;6.81;100.00;102352.84;4921720;29;20598;-72
2024/02/01 11:34:49;;;;;;;18.23;3.20;;;;;;;6.86;100.00;102359.44;4920207;29;20075;-72
2024/02/01 11:37:16;;;;;;;23.50;4.10;;;;;;;6.94;100.00;102348.56;4894030;29;20036;-72
2024/02/01 11:39:46;;;;;;;20.80;3.70;;;;;;;6.98;100.00;102352.47;4907458;29;20036;-72
2024/02/01 11:42:21;;;;;;;17.38;2.80;;;;;;;7.05;100.00;102363.94;4926190;29;20031;-72
2024/02/01 11:44:48;;;;;;;17.75;2.80;;;;;;;7.13;100.00;102365.56;4887517;29;20466;-72
2024/02/01 11:47:14;;;;;;;16.05;2.75;;;;;;;7.19;100.00;102351.41;4921535;29;20035;-71
2024/02/01 11:49:41;;;;;;;22.85;3.20;;;;;;;7.19;100.00;102362.06;4928200;28;21239;-71
2024/02/01 11:52:18;;;;;;;14.82;2.80;;;;;;;7.16;100.00;102365.94;4908781;29;20042;-72
2024/02/01 11:54:51;;;;;;;21.58;3.05;;;;;;;7.16;100.00;102381.13;4935286;28;20070;-73
2024/02/01 11:57:21;;;;;;;17.10;2.97;;;;;;;7.17;100.00;102377.41;4891866;29;20040;-73
2024/02/01 11:59:48;;;;;;;23.08;3.03;;;;;;;7.14;100.00;102389.31;4920727;29;20069;-72
2024/02/01 12:02:19;;;;;;;14.98;2.47;;;;;;;7.10;100.00;102380.91;4920404;29;20494;-71
2024/02/01 12:04:45;;;;;;;25.08;4.15;;;;;;;7.08;100.00;102384.81;4908109;29;20082;-72
2024/02/01 12:07:16;;;;;;;17.95;2.88;;;;;;;7.03;100.00;102389.94;4909199;29;20035;-72
2024/02/01 12:09:42;;;;;;;19.75;2.60;;;;;;;7.02;100.00;102398.97;4936398;28;20067;-72
2024/02/01 12:12:09;;;;;;;18.35;3.25;;;;;;;7.02;100.00;102401.63;4924284;29;20035;-72
2024/02/01 12:14:38;;;;;;;23.17;3.65;;;;;;;7.03;100.00;102408.56;4924292;29;20506;-72
2024/02/01 12:17:05;;;;;;;17.27;2.20;;;;;;;7.03;100.00;102408.56;4923328;29;20093;-72
2024/02/01 12:19:37;;;;;;;13.77;3.05;;;;;;;7.06;100.00;102418.84;4908590;29;20509;-72